createdAt,value
2022-09-10T00:02:45.158Z,88.82
2022-09-10T00:05:47.495Z,88.26
2022-09-10T00:08:49.573Z,89.64
2022-09-10T00:11:51.647Z,89.70
2022-09-10T00:14:54.413Z,89.68
2022-09-10T00:17:56.445Z,89.43
2022-09-10T00:20:59.293Z,88.54
2022-09-10T00:24:02.231Z,89.12
2022-09-10T00:27:04.570Z,89.46
2022-09-10T00:30:07.579Z,88.61
2022-09-10T00:33:10.071Z,88.02
2022-09-10T00:36:17.654Z,90.01
2022-09-10T00:39:20.465Z,89.79
2022-09-10T00:42:23.018Z,89.27
2022-09-10T00:45:30.101Z,89.71
2022-09-10T00:48:32.181Z,89.08
2022-09-10T00:51:35.130Z,88.77
2022-09-10T00:54:37.248Z,88.83
2022-09-10T00:57:39.278Z,89.52
2022-09-10T01:00:41.927Z,90.31
2022-09-10T01:03:44.114Z,89.66
2022-09-10T01:06:46.452Z,89.85
2022-09-10T01:09:48.495Z,89.33
2022-09-10T01:13:09.221Z,89.18
2022-09-10T01:16:27.586Z,88.58
2022-09-10T01:20:00.611Z,89.57
2022-09-10T01:23:58.182Z,89.90
2022-09-10T01:27:51.261Z,90.31
2022-09-10T01:30:58.308Z,90.02
2022-09-10T01:34:08.203Z,89.70
2022-09-10T01:37:17.393Z,89.35
2022-09-10T01:40:19.561Z,89.94
2022-09-10T01:43:23.032Z,89.10
2022-09-10T01:46:53.894Z,88.07
2022-09-10T01:50:17.633Z,89.70
2022-09-10T01:53:35.330Z,89.46
2022-09-10T01:56:51.928Z,89.36
2022-09-10T02:00:10.014Z,88.97
2022-09-10T02:03:22.790Z,88.90
2022-09-10T02:06:29.645Z,89.65
2022-09-10T02:09:33.594Z,89.43
2022-09-10T02:12:36.380Z,89.05
2022-09-10T02:15:56.835Z,88.86
2022-09-10T02:19:01.430Z,89.23
2022-09-10T02:22:03.458Z,88.53
2022-09-10T02:25:07.295Z,88.94
2022-09-10T02:28:09.531Z,89.29
2022-09-10T02:31:12.689Z,88.37
2022-09-10T02:34:16.090Z,88.66
2022-09-10T02:37:21.166Z,88.77
2022-09-10T02:40:23.249Z,88.64
2022-09-10T02:43:29.327Z,89.43
2022-09-10T02:46:33.867Z,88.75
2022-09-10T02:49:35.914Z,89.77
2022-09-10T02:52:38.150Z,89.32
2022-09-10T02:55:46.256Z,89.50
2022-09-10T02:58:49.363Z,89.74
2022-09-10T03:01:51.816Z,89.40
2022-09-10T03:04:53.962Z,89.83
2022-09-10T03:07:56.072Z,89.93
2022-09-10T03:10:59.451Z,89.67
2022-09-10T03:14:01.483Z,89.24
2022-09-10T03:17:05.187Z,88.70
2022-09-10T03:20:08.219Z,89.94
2022-09-10T03:23:11.274Z,89.28
2022-09-10T03:26:14.503Z,88.91
2022-09-10T03:29:17.215Z,88.90
2022-09-10T03:32:19.662Z,88.31
2022-09-10T03:35:22.489Z,88.65
2022-09-10T03:38:25.255Z,87.98
2022-09-10T03:41:28.482Z,88.88
2022-09-10T03:44:33.697Z,88.41
2022-09-10T03:47:37.657Z,88.09
2022-09-10T03:50:39.951Z,88.16
2022-09-10T03:53:43.439Z,88.21
2022-09-10T03:56:45.639Z,87.55
2022-09-10T03:59:47.822Z,88.32
2022-09-10T04:02:50.940Z,87.76
2022-09-10T04:05:53.047Z,87.75
2022-09-10T04:08:55.131Z,88.09
2022-09-10T04:11:58.878Z,88.57
2022-09-10T04:15:04.162Z,89.44
2022-09-10T04:18:07.374Z,88.56
2022-09-10T04:21:10.314Z,88.52
2022-09-10T04:24:14.942Z,88.96
2022-09-10T04:27:17.565Z,88.29
2022-09-10T04:30:19.999Z,89.13
2022-09-10T04:33:22.083Z,88.40
2022-09-10T04:36:25.152Z,88.71
2022-09-10T04:39:27.267Z,88.85
2022-09-10T04:42:31.803Z,88.88
2022-09-10T04:45:34.701Z,88.75
2022-09-10T04:48:37.004Z,88.14
2022-09-10T04:51:39.411Z,88.95
2022-09-10T04:54:41.767Z,88.28
2022-09-10T04:57:44.714Z,87.58
2022-09-10T05:00:47.039Z,88.70
2022-09-10T05:03:49.179Z,88.14
2022-09-10T05:06:51.318Z,87.83
2022-09-10T05:09:53.631Z,89.42
2022-09-10T05:12:55.759Z,89.38
2022-09-10T05:16:01.660Z,89.29
2022-09-10T05:19:06.291Z,89.04
2022-09-10T05:22:16.242Z,88.87
2022-09-10T05:25:18.594Z,88.92
2022-09-10T05:28:21.981Z,89.18
2022-09-10T05:31:24.481Z,89.17
2022-09-10T05:34:27.210Z,89.03
2022-09-10T05:37:29.370Z,89.19
2022-09-10T05:40:31.427Z,89.12
2022-09-10T05:43:34.008Z,89.14
2022-09-10T05:46:36.119Z,89.18
2022-09-10T05:49:47.971Z,90.48
2022-09-10T05:52:50.127Z,89.64
2022-09-10T05:55:52.706Z,89.77
2022-09-10T05:58:54.891Z,89.97
2022-09-10T06:01:58.161Z,89.58
2022-09-10T06:05:00.780Z,88.83
2022-09-10T06:08:07.895Z,90.16
2022-09-10T06:11:13.446Z,89.72
2022-09-10T06:14:20.288Z,89.04
2022-09-10T06:17:22.525Z,89.12
2022-09-10T06:20:25.573Z,89.90
2022-09-10T06:23:27.902Z,88.41
2022-09-10T06:26:30.002Z,89.77
2022-09-10T06:29:38.939Z,89.46
2022-09-10T06:32:43.381Z,90.04
2022-09-10T06:35:56.042Z,88.98
2022-09-10T06:39:01.684Z,89.55
2022-09-10T06:42:06.534Z,89.04
2022-09-10T06:45:28.192Z,89.63
2022-09-10T06:48:49.178Z,89.25
2022-09-10T06:51:53.437Z,88.94
2022-09-10T06:54:56.543Z,88.29
2022-09-10T06:58:09.284Z,88.24
2022-09-10T07:01:18.916Z,87.15
2022-09-10T07:04:25.258Z,87.05
2022-09-10T07:07:28.336Z,86.85
2022-09-10T07:10:31.410Z,86.67
2022-09-10T07:13:34.122Z,86.84
2022-09-10T07:16:36.774Z,86.87
2022-09-10T07:19:39.138Z,87.38
2022-09-10T07:22:48.092Z,87.43
2022-09-10T07:25:53.943Z,86.87
2022-09-10T07:29:11.406Z,87.05
2022-09-10T07:32:13.931Z,86.31
2022-09-10T07:35:17.174Z,86.78
2022-09-10T07:38:20.658Z,86.18
2022-09-10T07:41:24.090Z,86.57
2022-09-10T07:44:26.334Z,87.24
2022-09-10T07:47:30.206Z,86.75
2022-09-10T07:50:32.622Z,85.92
2022-09-10T07:53:35.931Z,86.12
2022-09-10T07:56:39.447Z,86.45
2022-09-10T07:59:43.797Z,87.48
2022-09-10T08:02:49.554Z,86.60
2022-09-10T08:05:55.379Z,86.26
2022-09-10T08:08:57.496Z,86.75
2022-09-10T08:11:59.850Z,85.59
2022-09-10T08:15:02.425Z,85.14
2022-09-10T08:18:05.016Z,84.43
2022-09-10T08:21:10.802Z,83.58
2022-09-10T08:24:13.479Z,83.24
2022-09-10T08:27:18.509Z,81.96
2022-09-10T08:30:22.191Z,82.16
2022-09-10T08:33:25.280Z,83.03
2022-09-10T08:36:27.559Z,81.46
2022-09-10T08:39:32.853Z,80.36
2022-09-10T08:42:49.282Z,80.39
2022-09-10T08:45:53.083Z,81.49
2022-09-10T08:49:11.631Z,82.13
2022-09-10T08:52:42.078Z,80.55
2022-09-10T08:55:53.078Z,80.36
2022-09-10T08:59:04.541Z,80.03
2022-09-10T09:02:48.998Z,79.97
2022-09-10T09:06:02.130Z,79.21
2022-09-10T09:09:15.603Z,78.92
2022-09-10T09:12:39.401Z,78.96
2022-09-10T09:16:05.593Z,79.53
2022-09-10T09:19:17.211Z,80.09
2022-09-10T09:22:27.365Z,79.59
2022-09-10T09:25:45.166Z,82.00
2022-09-10T09:29:18.107Z,82.21
2022-09-10T09:32:21.789Z,83.65
2022-09-10T09:35:57.731Z,84.27
2022-09-10T09:39:00.240Z,83.22
2022-09-10T09:42:29.277Z,82.13
2022-09-10T09:45:39.055Z,81.12
2022-09-10T09:48:42.080Z,80.85
2022-09-10T09:51:46.144Z,81.59
2022-09-10T09:55:14.758Z,79.23
2022-09-10T09:58:26.478Z,79.13
2022-09-10T10:01:39.579Z,78.90
2022-09-10T10:05:07.308Z,78.15
2022-09-10T10:08:34.437Z,77.60
2022-09-10T10:11:40.847Z,78.05
2022-09-10T10:14:43.304Z,81.03
2022-09-10T10:17:47.230Z,81.31
2022-09-10T10:21:13.519Z,80.07
2022-09-10T10:24:35.810Z,81.26
2022-09-10T10:27:48.307Z,81.01
2022-09-10T10:31:00.262Z,80.73
2022-09-10T10:35:00.927Z,81.00
2022-09-10T10:38:28.340Z,78.82
2022-09-10T10:41:47.802Z,80.58
2022-09-10T10:45:31.236Z,80.85
2022-09-10T10:49:16.446Z,79.63
2022-09-10T10:52:36.950Z,79.33
2022-09-10T10:55:50.359Z,79.58
2022-09-10T10:59:49.217Z,82.22
2022-09-10T11:03:18.790Z,83.20
2022-09-10T11:06:24.639Z,82.26
2022-09-10T11:09:29.385Z,83.47
2022-09-10T11:13:10.975Z,82.16
2022-09-10T11:16:24.088Z,83.18
2022-09-10T11:19:38.369Z,83.69
2022-09-10T11:22:55.831Z,83.11
2022-09-10T11:26:26.913Z,84.08
2022-09-10T11:30:05.556Z,82.49
2022-09-10T11:33:23.442Z,82.49
2022-09-10T11:36:29.754Z,83.07
2022-09-10T11:39:37.699Z,83.22
2022-09-10T11:42:46.121Z,83.73
2022-09-10T11:45:55.042Z,84.52
2022-09-10T11:49:07.434Z,83.91
2022-09-10T11:52:11.985Z,83.45
2022-09-10T11:55:15.703Z,84.23
2022-09-10T11:58:20.367Z,84.94
2022-09-10T12:02:26.655Z,84.29
2022-09-10T12:06:23.923Z,85.18
2022-09-10T12:10:00.422Z,85.22
2022-09-10T12:13:12.626Z,84.82
2022-09-10T12:16:22.196Z,85.77
2022-09-10T12:19:33.917Z,82.95
2022-09-10T12:22:40.294Z,84.67
2022-09-10T12:25:42.482Z,84.09
2022-09-10T12:28:53.751Z,84.93
2022-09-10T12:32:21.005Z,84.42
2022-09-10T12:35:32.691Z,86.22
2022-09-10T12:39:16.551Z,83.88
2022-09-10T12:42:33.626Z,85.29
2022-09-10T12:46:09.822Z,85.35
2022-09-10T12:49:12.938Z,83.65
2022-09-10T12:52:44.798Z,83.46
2022-09-10T12:56:02.357Z,83.75
2022-09-10T12:59:53.381Z,85.31
2022-09-10T13:03:17.828Z,83.90
2022-09-10T13:06:20.045Z,84.73
2022-09-10T13:09:28.890Z,84.14
2022-09-10T13:12:32.769Z,82.93
2022-09-10T13:15:37.936Z,83.58
2022-09-10T13:18:41.903Z,81.29
2022-09-10T13:21:43.838Z,82.10
2022-09-10T13:25:25.241Z,82.88
2022-09-10T13:28:30.336Z,83.25
2022-09-10T13:31:36.622Z,84.04
2022-09-10T13:35:21.958Z,81.35
2022-09-10T13:38:52.442Z,82.67
2022-09-10T13:42:15.468Z,83.44
2022-09-10T13:45:29.435Z,82.54
2022-09-10T13:48:53.027Z,83.52
2022-09-10T13:51:57.512Z,83.00
2022-09-10T13:54:59.615Z,84.27
2022-09-10T13:58:16.637Z,85.04
2022-09-10T14:01:18.784Z,85.07
2022-09-10T14:04:31.770Z,84.07
2022-09-10T14:07:34.039Z,84.93
2022-09-10T14:10:53.365Z,83.96
2022-09-10T14:14:29.545Z,85.19
2022-09-10T14:17:45.197Z,84.84
2022-09-10T14:20:47.314Z,84.33
2022-09-10T14:23:49.405Z,84.44
2022-09-10T14:27:25.689Z,84.44
2022-09-10T14:30:29.938Z,83.92
2022-09-10T14:33:34.072Z,84.93
2022-09-10T14:36:36.184Z,84.68
2022-09-10T14:39:38.261Z,84.27
2022-09-10T14:42:40.312Z,84.73
2022-09-10T14:45:47.821Z,84.12
2022-09-10T14:48:59.055Z,84.77
2022-09-10T14:52:01.820Z,83.54
2022-09-10T14:55:04.267Z,83.79
2022-09-10T14:58:06.422Z,84.07
2022-09-10T15:01:09.373Z,84.25
2022-09-10T15:04:16.806Z,85.31
2022-09-10T15:07:19.090Z,84.65
2022-09-10T15:10:21.210Z,84.63
2022-09-10T15:13:23.351Z,84.82
2022-09-10T15:16:25.714Z,84.88
2022-09-10T15:19:27.976Z,84.73
2022-09-10T15:22:31.603Z,84.50
2022-09-10T15:25:46.495Z,84.71
2022-09-10T15:28:48.543Z,85.41
2022-09-10T15:31:51.381Z,85.14
2022-09-10T15:34:53.439Z,86.09
2022-09-10T15:37:55.523Z,84.45
2022-09-10T15:41:12.648Z,84.43
2022-09-10T15:44:15.070Z,83.03
2022-09-10T15:47:17.092Z,82.76
2022-09-10T15:50:19.203Z,83.97
2022-09-10T15:53:21.274Z,83.99
2022-09-10T15:56:26.626Z,84.40
2022-09-10T15:59:28.677Z,84.38
2022-09-10T16:02:30.769Z,84.53
2022-09-10T16:05:35.315Z,85.07
2022-09-10T16:08:37.411Z,84.87
2022-09-10T16:11:41.117Z,84.54
2022-09-10T16:14:44.700Z,86.04
2022-09-10T16:17:46.719Z,84.82
2022-09-10T16:20:48.766Z,85.14
2022-09-10T16:23:52.375Z,86.07
2022-09-10T16:26:54.395Z,85.14
2022-09-10T16:29:56.423Z,84.41
2022-09-10T16:32:58.707Z,84.72
2022-09-10T16:36:05.288Z,83.97
2022-09-10T16:39:12.775Z,82.95
2022-09-10T16:42:14.831Z,81.62
2022-09-10T16:45:16.943Z,82.13
2022-09-10T16:48:19.011Z,83.48
2022-09-10T16:51:25.538Z,82.99
2022-09-10T16:54:29.025Z,84.11
2022-09-10T16:57:31.248Z,83.24
2022-09-10T17:00:33.331Z,83.61
2022-09-10T17:03:39.699Z,83.98
2022-09-10T17:06:41.991Z,84.42
2022-09-10T17:09:44.048Z,84.70
2022-09-10T17:12:46.160Z,84.27
2022-09-10T17:15:48.237Z,83.42
2022-09-10T17:19:17.542Z,83.80
2022-09-10T17:22:19.590Z,83.88
2022-09-10T17:25:21.639Z,84.24
2022-09-10T17:28:23.696Z,83.97
2022-09-10T17:31:27.751Z,83.87
2022-09-10T17:34:29.923Z,84.23
2022-09-10T17:37:32.340Z,83.47
2022-09-10T17:40:34.511Z,84.86
2022-09-10T17:43:37.530Z,84.60
2022-09-10T17:46:39.774Z,83.18
2022-09-10T17:49:43.194Z,83.48
2022-09-10T17:52:45.935Z,83.89
2022-09-10T17:55:48.056Z,83.87
2022-09-10T17:58:51.692Z,83.26
2022-09-10T18:01:53.833Z,83.74
2022-09-10T18:04:56.046Z,83.30
2022-09-10T18:07:58.100Z,84.24
2022-09-10T18:11:06.764Z,84.65
2022-09-10T18:14:12.228Z,86.04
2022-09-10T18:17:14.329Z,84.66
2022-09-10T18:20:16.542Z,84.61
2022-09-10T18:23:19.420Z,83.82
2022-09-10T18:26:23.606Z,84.37
2022-09-10T18:29:27.816Z,83.58
2022-09-10T18:32:29.850Z,84.24
2022-09-10T18:35:31.947Z,84.40
2022-09-10T18:38:33.972Z,84.40
2022-09-10T18:41:36.526Z,83.63
2022-09-10T18:44:38.904Z,83.70
2022-09-10T18:47:45.083Z,82.84
2022-09-10T18:50:47.322Z,83.21
2022-09-10T18:53:52.586Z,82.92
2022-09-10T18:56:54.768Z,82.30
2022-09-10T18:59:57.176Z,82.68
2022-09-10T19:02:59.202Z,84.02
2022-09-10T19:06:08.220Z,84.56
2022-09-10T19:09:15.786Z,84.99
2022-09-10T19:12:19.325Z,84.13
2022-09-10T19:15:22.195Z,85.44
2022-09-10T19:18:27.093Z,84.93
2022-09-10T19:21:30.078Z,84.54
2022-09-10T19:24:53.494Z,84.75
2022-09-10T19:27:55.046Z,84.87
2022-09-10T19:31:01.423Z,85.02
2022-09-10T19:34:06.170Z,84.14
2022-09-10T19:37:08.242Z,83.78
2022-09-10T19:40:12.049Z,83.47
2022-09-10T19:43:14.116Z,81.68
2022-09-10T19:46:17.064Z,81.70
2022-09-10T19:49:19.130Z,82.03
2022-09-10T19:52:21.682Z,82.25
2022-09-10T19:55:23.862Z,83.31
2022-09-10T19:58:25.910Z,83.53
2022-09-10T20:01:33.101Z,85.72
2022-09-10T20:04:35.824Z,85.19
2022-09-10T20:07:37.876Z,82.98
2022-09-10T20:10:39.995Z,83.44
2022-09-10T20:13:42.239Z,83.72
2022-09-10T20:16:45.203Z,85.13
2022-09-10T20:19:47.510Z,84.17
2022-09-10T20:22:49.610Z,85.59
2022-09-10T20:25:51.667Z,82.26
2022-09-10T20:29:28.534Z,83.42
2022-09-10T20:32:30.600Z,83.27
2022-09-10T20:35:33.144Z,84.35
2022-09-10T20:38:35.274Z,83.42
2022-09-10T20:41:37.957Z,83.34
2022-09-10T20:44:40.003Z,83.42
2022-09-10T20:47:43.175Z,83.79
2022-09-10T20:50:56.013Z,83.11
2022-09-10T20:53:58.198Z,83.61
2022-09-10T20:57:00.303Z,82.73
2022-09-10T21:00:02.736Z,81.66
2022-09-10T21:03:04.782Z,80.93
2022-09-10T21:06:08.510Z,81.77
2022-09-10T21:09:10.606Z,82.76
2022-09-10T21:12:13.194Z,82.67
2022-09-10T21:15:15.797Z,81.91
2022-09-10T21:18:17.847Z,80.65
2022-09-10T21:21:23.436Z,79.32
2022-09-10T21:24:26.875Z,79.01
2022-09-10T21:27:29.316Z,79.37
2022-09-10T21:30:31.387Z,81.73
2022-09-10T21:33:33.808Z,80.18
2022-09-10T21:36:37.386Z,79.86
2022-09-10T21:39:39.505Z,79.17
2022-09-10T21:42:41.723Z,79.61
2022-09-10T21:45:43.851Z,78.49
2022-09-10T21:48:46.020Z,79.23
2022-09-10T21:51:48.112Z,78.79
2022-09-10T21:54:50.214Z,78.39
2022-09-10T21:57:52.402Z,78.75
2022-09-10T22:00:58.246Z,78.91
2022-09-10T22:04:00.815Z,78.80
2022-09-10T22:07:04.778Z,79.52
2022-09-10T22:10:07.637Z,79.63
2022-09-10T22:13:11.711Z,78.77
2022-09-10T22:16:13.867Z,78.04
2022-09-10T22:19:24.259Z,77.72
2022-09-10T22:22:26.937Z,78.25
2022-09-10T22:25:29.666Z,78.99
2022-09-10T22:28:34.947Z,78.09
2022-09-10T22:31:37.376Z,77.69
2022-09-10T22:34:39.485Z,79.22
2022-09-10T22:37:41.585Z,78.90
2022-09-10T22:40:43.644Z,79.29
2022-09-10T22:43:46.264Z,78.60
2022-09-10T22:46:48.426Z,78.28
2022-09-10T22:49:50.685Z,78.41
2022-09-10T22:52:52.694Z,79.43
2022-09-10T22:55:54.754Z,80.45
2022-09-10T22:58:58.417Z,81.10
2022-09-10T23:02:01.286Z,80.63
2022-09-10T23:05:03.846Z,80.51
2022-09-10T23:08:05.938Z,80.52
2022-09-10T23:11:21.590Z,81.36
2022-09-10T23:14:25.534Z,81.68
2022-09-10T23:17:27.646Z,81.74
2022-09-10T23:20:29.751Z,82.32
2022-09-10T23:23:31.875Z,81.97
2022-09-10T23:26:34.135Z,81.98
2022-09-10T23:29:36.531Z,82.86
2022-09-10T23:32:38.862Z,84.21
2022-09-10T23:35:40.994Z,83.67
2022-09-10T23:38:43.863Z,83.73
2022-09-10T23:41:46.831Z,83.00
2022-09-10T23:44:49.031Z,81.70
2022-09-10T23:47:51.291Z,81.30
2022-09-10T23:50:54.379Z,81.93
2022-09-10T23:53:56.439Z,82.16
2022-09-10T23:56:58.539Z,80.86
